sensor_id;sensor_type;location;lat;lon;timestamp;P1;durP1;ratioP1;P2;durP2;ratioP2
7477;SDS011;3780;42.424;25.636;2024-02-14T00:01:22;5.85;;;3.45;;
7477;SDS011;3780;42.424;25.636;2024-02-14T00:03:47;4.63;;;3.17;;
7477;SDS011;3780;42.424;25.636;2024-02-14T00:06:12;4.10;;;3.25;;
7477;SDS011;3780;42.424;25.636;2024-02-14T00:08:38;4.57;;;2.90;;
7477;SDS011;3780;42.424;25.636;2024-02-14T00:11:03;6.13;;;3.60;;
7477;SDS011;3780;42.424;25.636;2024-02-14T00:13:29;5.82;;;4.38;;
7477;SDS011;3780;42.424;25.636;2024-02-14T00:15:54;5.38;;;3.70;;
7477;SDS011;3780;42.424;25.636;2024-02-14T00:18:21;3.13;;;2.40;;
7477;SDS011;3780;42.424;25.636;2024-02-14T00:20:47;3.17;;;2.00;;
7477;SDS011;3780;42.424;25.636;2024-02-14T00:23:13;6.63;;;1.65;;
7477;SDS011;3780;42.424;25.636;2024-02-14T00:25:38;5.25;;;2.22;;
7477;SDS011;3780;42.424;25.636;2024-02-14T00:28:04;2.30;;;1.65;;
7477;SDS011;3780;42.424;25.636;2024-02-14T00:30:30;6.07;;;1.83;;
7477;SDS011;3780;42.424;25.636;2024-02-14T00:32:56;3.35;;;1.60;;
7477;SDS011;3780;42.424;25.636;2024-02-14T00:35:21;2.58;;;1.50;;
7477;SDS011;3780;42.424;25.636;2024-02-14T00:37:47;3.03;;;1.30;;
7477;SDS011;3780;42.424;25.636;2024-02-14T00:40:12;4.07;;;1.30;;
7477;SDS011;3780;42.424;25.636;2024-02-14T00:42:37;2.47;;;1.50;;
7477;SDS011;3780;42.424;25.636;2024-02-14T00:45:03;3.13;;;1.77;;
7477;SDS011;3780;42.424;25.636;2024-02-14T00:47:28;5.55;;;2.13;;
7477;SDS011;3780;42.424;25.636;2024-02-14T00:49:54;2.83;;;2.03;;
7477;SDS011;3780;42.424;25.636;2024-02-14T00:52:19;2.90;;;2.42;;
7477;SDS011;3780;42.424;25.636;2024-02-14T00:54:46;4.97;;;3.45;;
7477;SDS011;3780;42.424;25.636;2024-02-14T00:57:12;7.90;;;4.00;;
7477;SDS011;3780;42.424;25.636;2024-02-14T00:59:37;4.75;;;3.15;;
7477;SDS011;3780;42.424;25.636;2024-02-14T01:02:03;8.32;;;3.55;;
7477;SDS011;3780;42.424;25.636;2024-02-14T01:04:29;7.13;;;3.47;;
7477;SDS011;3780;42.424;25.636;2024-02-14T01:06:54;7.80;;;3.78;;
7477;SDS011;3780;42.424;25.636;2024-02-14T01:09:20;7.80;;;3.67;;
7477;SDS011;3780;42.424;25.636;2024-02-14T01:11:45;8.40;;;4.68;;
7477;SDS011;3780;42.424;25.636;2024-02-14T01:14:10;5.72;;;4.20;;
7477;SDS011;3780;42.424;25.636;2024-02-14T01:16:42;6.07;;;3.88;;
7477;SDS011;3780;42.424;25.636;2024-02-14T01:19:08;6.00;;;3.40;;
7477;SDS011;3780;42.424;25.636;2024-02-14T01:21:34;6.32;;;3.40;;
7477;SDS011;3780;42.424;25.636;2024-02-14T01:23:59;5.68;;;3.92;;
7477;SDS011;3780;42.424;25.636;2024-02-14T01:26:24;11.70;;;4.68;;
7477;SDS011;3780;42.424;25.636;2024-02-14T01:28:49;9.05;;;3.67;;
7477;SDS011;3780;42.424;25.636;2024-02-14T01:31:15;7.13;;;3.42;;
7477;SDS011;3780;42.424;25.636;2024-02-14T01:33:40;6.32;;;3.08;;
7477;SDS011;3780;42.424;25.636;2024-02-14T01:36:05;5.07;;;3.03;;
7477;SDS011;3780;42.424;25.636;2024-02-14T01:38:31;7.40;;;2.80;;
7477;SDS011;3780;42.424;25.636;2024-02-14T01:41:00;3.75;;;2.30;;
7477;SDS011;3780;42.424;25.636;2024-02-14T01:43:25;3.67;;;2.63;;
7477;SDS011;3780;42.424;25.636;2024-02-14T01:45:51;4.68;;;2.55;;
7477;SDS011;3780;42.424;25.636;2024-02-14T01:48:16;4.18;;;2.40;;
7477;SDS011;3780;42.424;25.636;2024-02-14T01:50:43;1.73;;;1.35;;
7477;SDS011;3780;42.424;25.636;2024-02-14T01:53:09;3.70;;;1.67;;
7477;SDS011;3780;42.424;25.636;2024-02-14T01:55:35;1.45;;;0.93;;
7477;SDS011;3780;42.424;25.636;2024-02-14T01:58:00;1.40;;;0.70;;
7477;SDS011;3780;42.424;25.636;2024-02-14T02:00:26;1.00;;;0.40;;
7477;SDS011;3780;42.424;25.636;2024-02-14T02:02:52;1.65;;;0.40;;
7477;SDS011;3780;42.424;25.636;2024-02-14T02:05:19;1.17;;;0.45;;
7477;SDS011;3780;42.424;25.636;2024-02-14T02:07:44;0.65;;;0.55;;
7477;SDS011;3780;42.424;25.636;2024-02-14T02:10:13;0.60;;;0.40;;
7477;SDS011;3780;42.424;25.636;2024-02-14T02:12:38;0.40;;;0.40;;
7477;SDS011;3780;42.424;25.636;2024-02-14T02:15:05;2.13;;;0.52;;
7477;SDS011;3780;42.424;25.636;2024-02-14T02:17:31;0.95;;;0.45;;
7477;SDS011;3780;42.424;25.636;2024-02-14T02:19:59;2.38;;;0.40;;
7477;SDS011;3780;42.424;25.636;2024-02-14T02:22:24;2.88;;;0.70;;
7477;SDS011;3780;42.424;25.636;2024-02-14T02:24:49;3.90;;;0.40;;
7477;SDS011;3780;42.424;25.636;2024-02-14T02:27:15;0.90;;;0.50;;
7477;SDS011;3780;42.424;25.636;2024-02-14T02:29:41;0.77;;;0.43;;
7477;SDS011;3780;42.424;25.636;2024-02-14T02:32:07;0.63;;;0.45;;
7477;SDS011;3780;42.424;25.636;2024-02-14T02:34:35;3.47;;;1.00;;
7477;SDS011;3780;42.424;25.636;2024-02-14T02:37:04;1.77;;;0.70;;
7477;SDS011;3780;42.424;25.636;2024-02-14T02:39:32;0.93;;;0.50;;
7477;SDS011;3780;42.424;25.636;2024-02-14T02:41:57;3.67;;;0.80;;
7477;SDS011;3780;42.424;25.636;2024-02-14T02:44:24;5.70;;;0.63;;
7477;SDS011;3780;42.424;25.636;2024-02-14T02:46:50;2.33;;;0.60;;
7477;SDS011;3780;42.424;25.636;2024-02-14T02:49:15;0.85;;;0.60;;
7477;SDS011;3780;42.424;25.636;2024-02-14T02:51:40;1.73;;;0.73;;
7477;SDS011;3780;42.424;25.636;2024-02-14T02:54:05;1.48;;;1.00;;
7477;SDS011;3780;42.424;25.636;2024-02-14T02:56:32;2.10;;;0.40;;
7477;SDS011;3780;42.424;25.636;2024-02-14T02:58:58;1.63;;;0.70;;
7477;SDS011;3780;42.424;25.636;2024-02-14T03:01:24;3.17;;;1.25;;
7477;SDS011;3780;42.424;25.636;2024-02-14T03:03:50;1.38;;;0.60;;
7477;SDS011;3780;42.424;25.636;2024-02-14T03:06:15;6.43;;;1.00;;
7477;SDS011;3780;42.424;25.636;2024-02-14T03:08:40;1.60;;;0.63;;
7477;SDS011;3780;42.424;25.636;2024-02-14T03:11:06;6.93;;;1.17;;
7477;SDS011;3780;42.424;25.636;2024-02-14T03:13:32;4.95;;;1.10;;
7477;SDS011;3780;42.424;25.636;2024-02-14T03:15:57;3.08;;;1.10;;
7477;SDS011;3780;42.424;25.636;2024-02-14T03:18:23;2.35;;;0.68;;
7477;SDS011;3780;42.424;25.636;2024-02-14T03:20:49;2.78;;;0.88;;
7477;SDS011;3780;42.424;25.636;2024-02-14T03:23:15;2.53;;;0.73;;
7477;SDS011;3780;42.424;25.636;2024-02-14T03:25:40;1.65;;;0.60;;
7477;SDS011;3780;42.424;25.636;2024-02-14T03:28:05;1.10;;;0.60;;
7477;SDS011;3780;42.424;25.636;2024-02-14T03:30:36;2.03;;;0.80;;
7477;SDS011;3780;42.424;25.636;2024-02-14T03:33:02;4.05;;;1.33;;
7477;SDS011;3780;42.424;25.636;2024-02-14T03:35:28;1.80;;;0.80;;
7477;SDS011;3780;42.424;25.636;2024-02-14T03:37:53;3.00;;;1.02;;
7477;SDS011;3780;42.424;25.636;2024-02-14T03:40:18;2.33;;;1.30;;
7477;SDS011;3780;42.424;25.636;2024-02-14T03:42:45;5.75;;;1.10;;
7477;SDS011;3780;42.424;25.636;2024-02-14T03:45:11;2.97;;;1.02;;
7477;SDS011;3780;42.424;25.636;2024-02-14T03:47:36;6.50;;;1.27;;
7477;SDS011;3780;42.424;25.636;2024-02-14T03:50:05;5.50;;;1.50;;
7477;SDS011;3780;42.424;25.636;2024-02-14T03:52:30;4.75;;;0.93;;
7477;SDS011;3780;42.424;25.636;2024-02-14T03:54:59;2.28;;;0.70;;
7477;SDS011;3780;42.424;25.636;2024-02-14T03:57:24;4.65;;;1.17;;
7477;SDS011;3780;42.424;25.636;2024-02-14T03:59:50;1.75;;;0.80;;
7477;SDS011;3780;42.424;25.636;2024-02-14T04:02:15;1.73;;;1.10;;
7477;SDS011;3780;42.424;25.636;2024-02-14T04:04:41;3.90;;;1.25;;
7477;SDS011;3780;42.424;25.636;2024-02-14T04:07:07;6.47;;;2.10;;
7477;SDS011;3780;42.424;25.636;2024-02-14T04:09:36;10.18;;;1.88;;
7477;SDS011;3780;42.424;25.636;2024-02-14T04:12:01;5.00;;;1.65;;
7477;SDS011;3780;42.424;25.636;2024-02-14T04:14:26;9.90;;;1.73;;
7477;SDS011;3780;42.424;25.636;2024-02-14T04:16:52;4.25;;;1.60;;
7477;SDS011;3780;42.424;25.636;2024-02-14T04:19:17;13.75;;;2.35;;
7477;SDS011;3780;42.424;25.636;2024-02-14T04:21:43;24.33;;;3.00;;
7477;SDS011;3780;42.424;25.636;2024-02-14T04:24:08;18.00;;;2.30;;
7477;SDS011;3780;42.424;25.636;2024-02-14T04:26:33;8.63;;;2.05;;
7477;SDS011;3780;42.424;25.636;2024-02-14T04:28:59;18.17;;;3.20;;
7477;SDS011;3780;42.424;25.636;2024-02-14T04:31:24;30.98;;;3.33;;
7477;SDS011;3780;42.424;25.636;2024-02-14T04:33:51;19.05;;;2.80;;
7477;SDS011;3780;42.424;25.636;2024-02-14T04:36:18;6.07;;;2.08;;
7477;SDS011;3780;42.424;25.636;2024-02-14T04:38:45;3.83;;;1.50;;
7477;SDS011;3780;42.424;25.636;2024-02-14T04:41:11;14.88;;;7.90;;
7477;SDS011;3780;42.424;25.636;2024-02-14T04:43:36;10.48;;;4.43;;
7477;SDS011;3780;42.424;25.636;2024-02-14T04:46:02;17.13;;;4.97;;
7477;SDS011;3780;42.424;25.636;2024-02-14T04:48:31;15.48;;;7.18;;
7477;SDS011;3780;42.424;25.636;2024-02-14T04:50:57;23.23;;;12.07;;
7477;SDS011;3780;42.424;25.636;2024-02-14T04:53:22;8.00;;;3.22;;
7477;SDS011;3780;42.424;25.636;2024-02-14T04:55:47;13.85;;;4.45;;
7477;SDS011;3780;42.424;25.636;2024-02-14T04:58:12;19.13;;;4.15;;
7477;SDS011;3780;42.424;25.636;2024-02-14T05:00:38;8.65;;;2.38;;
7477;SDS011;3780;42.424;25.636;2024-02-14T05:03:04;7.40;;;2.90;;
7477;SDS011;3780;42.424;25.636;2024-02-14T05:05:30;13.93;;;5.30;;
7477;SDS011;3780;42.424;25.636;2024-02-14T05:07:55;13.32;;;3.55;;
7477;SDS011;3780;42.424;25.636;2024-02-14T05:10:21;8.30;;;1.73;;
7477;SDS011;3780;42.424;25.636;2024-02-14T05:12:46;23.23;;;3.50;;
7477;SDS011;3780;42.424;25.636;2024-02-14T05:15:12;13.85;;;2.83;;
7477;SDS011;3780;42.424;25.636;2024-02-14T05:17:38;13.98;;;2.55;;
7477;SDS011;3780;42.424;25.636;2024-02-14T05:20:04;18.70;;;2.97;;
7477;SDS011;3780;42.424;25.636;2024-02-14T05:22:34;17.35;;;2.60;;
7477;SDS011;3780;42.424;25.636;2024-02-14T05:25:00;18.70;;;2.42;;
7477;SDS011;3780;42.424;25.636;2024-02-14T05:27:25;4.28;;;1.23;;
7477;SDS011;3780;42.424;25.636;2024-02-14T05:29:51;6.00;;;1.88;;
7477;SDS011;3780;42.424;25.636;2024-02-14T05:32:16;4.88;;;1.50;;
7477;SDS011;3780;42.424;25.636;2024-02-14T05:34:41;10.98;;;1.20;;
7477;SDS011;3780;42.424;25.636;2024-02-14T05:37:07;9.48;;;4.60;;
7477;SDS011;3780;42.424;25.636;2024-02-14T05:39:33;9.60;;;4.78;;
7477;SDS011;3780;42.424;25.636;2024-02-14T05:41:59;10.05;;;6.25;;
7477;SDS011;3780;42.424;25.636;2024-02-14T05:44:24;7.88;;;3.85;;
7477;SDS011;3780;42.424;25.636;2024-02-14T05:46:51;12.77;;;5.28;;
7477;SDS011;3780;42.424;25.636;2024-02-14T05:49:16;11.32;;;5.25;;
7477;SDS011;3780;42.424;25.636;2024-02-14T05:51:42;14.88;;;6.53;;
7477;SDS011;3780;42.424;25.636;2024-02-14T05:54:07;22.88;;;9.65;;
7477;SDS011;3780;42.424;25.636;2024-02-14T05:56:32;22.20;;;10.48;;
7477;SDS011;3780;42.424;25.636;2024-02-14T05:58:58;17.02;;;10.35;;
7477;SDS011;3780;42.424;25.636;2024-02-14T06:01:23;12.23;;;7.15;;
7477;SDS011;3780;42.424;25.636;2024-02-14T06:03:48;10.43;;;6.55;;
7477;SDS011;3780;42.424;25.636;2024-02-14T06:06:14;16.75;;;10.18;;
7477;SDS011;3780;42.424;25.636;2024-02-14T06:08:39;11.38;;;6.30;;
7477;SDS011;3780;42.424;25.636;2024-02-14T06:11:04;10.93;;;7.35;;
7477;SDS011;3780;42.424;25.636;2024-02-14T06:13:30;6.90;;;3.50;;
7477;SDS011;3780;42.424;25.636;2024-02-14T06:15:55;7.65;;;2.80;;
7477;SDS011;3780;42.424;25.636;2024-02-14T06:18:20;6.82;;;2.47;;
7477;SDS011;3780;42.424;25.636;2024-02-14T06:20:46;3.28;;;2.85;;
7477;SDS011;3780;42.424;25.636;2024-02-14T06:23:12;5.45;;;2.60;;
7477;SDS011;3780;42.424;25.636;2024-02-14T06:25:37;4.10;;;2.58;;
7477;SDS011;3780;42.424;25.636;2024-02-14T06:28:02;2.38;;;1.65;;
7477;SDS011;3780;42.424;25.636;2024-02-14T06:30:28;3.55;;;1.60;;
7477;SDS011;3780;42.424;25.636;2024-02-14T06:32:53;7.22;;;2.47;;
7477;SDS011;3780;42.424;25.636;2024-02-14T06:35:18;3.72;;;2.03;;
7477;SDS011;3780;42.424;25.636;2024-02-14T06:37:46;2.78;;;2.10;;
7477;SDS011;3780;42.424;25.636;2024-02-14T06:40:11;2.90;;;2.05;;
7477;SDS011;3780;42.424;25.636;2024-02-14T06:42:36;3.55;;;2.45;;
7477;SDS011;3780;42.424;25.636;2024-02-14T06:45:02;5.47;;;2.30;;
7477;SDS011;3780;42.424;25.636;2024-02-14T06:47:28;3.00;;;1.63;;
7477;SDS011;3780;42.424;25.636;2024-02-14T06:49:55;4.65;;;1.50;;
7477;SDS011;3780;42.424;25.636;2024-02-14T06:52:20;4.15;;;1.52;;
7477;SDS011;3780;42.424;25.636;2024-02-14T06:54:45;3.65;;;1.65;;
7477;SDS011;3780;42.424;25.636;2024-02-14T06:57:13;2.33;;;1.63;;
7477;SDS011;3780;42.424;25.636;2024-02-14T06:59:38;2.97;;;2.38;;
7477;SDS011;3780;42.424;25.636;2024-02-14T07:02:04;3.78;;;1.88;;
7477;SDS011;3780;42.424;25.636;2024-02-14T07:04:30;3.65;;;1.27;;
7477;SDS011;3780;42.424;25.636;2024-02-14T07:06:56;3.08;;;1.55;;
7477;SDS011;3780;42.424;25.636;2024-02-14T07:09:21;4.15;;;3.00;;
7477;SDS011;3780;42.424;25.636;2024-02-14T07:11:46;2.65;;;1.85;;
7477;SDS011;3780;42.424;25.636;2024-02-14T07:14:12;4.10;;;2.55;;
7477;SDS011;3780;42.424;25.636;2024-02-14T07:16:37;1.80;;;1.30;;
7477;SDS011;3780;42.424;25.636;2024-02-14T07:19:02;2.83;;;1.50;;
7477;SDS011;3780;42.424;25.636;2024-02-14T07:21:28;3.42;;;2.33;;
7477;SDS011;3780;42.424;25.636;2024-02-14T07:23:53;2.63;;;1.27;;
7477;SDS011;3780;42.424;25.636;2024-02-14T07:26:19;2.80;;;0.80;;
7477;SDS011;3780;42.424;25.636;2024-02-14T07:28:44;1.25;;;0.90;;
7477;SDS011;3780;42.424;25.636;2024-02-14T07:31:09;1.02;;;0.60;;
7477;SDS011;3780;42.424;25.636;2024-02-14T07:33:35;2.53;;;1.00;;
7477;SDS011;3780;42.424;25.636;2024-02-14T07:36:00;15.55;;;11.05;;
7477;SDS011;3780;42.424;25.636;2024-02-14T07:38:25;2.92;;;1.73;;
7477;SDS011;3780;42.424;25.636;2024-02-14T07:40:51;1.10;;;0.50;;
7477;SDS011;3780;42.424;25.636;2024-02-14T07:43:17;0.65;;;0.38;;
7477;SDS011;3780;42.424;25.636;2024-02-14T07:45:42;0.30;;;0.20;;
7477;SDS011;3780;42.424;25.636;2024-02-14T07:48:07;1.00;;;0.52;;
7477;SDS011;3780;42.424;25.636;2024-02-14T07:50:33;1.73;;;0.80;;
7477;SDS011;3780;42.424;25.636;2024-02-14T07:52:58;1.52;;;0.80;;
7477;SDS011;3780;42.424;25.636;2024-02-14T07:55:24;1.40;;;0.73;;
7477;SDS011;3780;42.424;25.636;2024-02-14T07:57:49;1.35;;;0.90;;
7477;SDS011;3780;42.424;25.636;2024-02-14T08:00:14;2.35;;;0.60;;
7477;SDS011;3780;42.424;25.636;2024-02-14T08:05:12;1.67;;;0.70;;
7477;SDS011;3780;42.424;25.636;2024-02-14T08:07:37;2.92;;;0.90;;
7477;SDS011;3780;42.424;25.636;2024-02-14T08:10:03;0.45;;;0.20;;
7477;SDS011;3780;42.424;25.636;2024-02-14T08:12:30;0.45;;;0.20;;
7477;SDS011;3780;42.424;25.636;2024-02-14T08:14:55;1.48;;;0.30;;
7477;SDS011;3780;42.424;25.636;2024-02-14T08:17:20;1.15;;;0.40;;
7477;SDS011;3780;42.424;25.636;2024-02-14T08:19:46;3.28;;;1.25;;
7477;SDS011;3780;42.424;25.636;2024-02-14T08:22:11;1.50;;;0.95;;
7477;SDS011;3780;42.424;25.636;2024-02-14T08:24:37;2.20;;;0.88;;
7477;SDS011;3780;42.424;25.636;2024-02-14T08:27:02;1.55;;;0.80;;
7477;SDS011;3780;42.424;25.636;2024-02-14T08:29:31;1.77;;;0.77;;
7477;SDS011;3780;42.424;25.636;2024-02-14T08:31:56;2.13;;;0.90;;
7477;SDS011;3780;42.424;25.636;2024-02-14T08:34:22;1.15;;;0.60;;
7477;SDS011;3780;42.424;25.636;2024-02-14T08:36:47;1.00;;;0.60;;
7477;SDS011;3780;42.424;25.636;2024-02-14T08:39:12;1.35;;;0.93;;
7477;SDS011;3780;42.424;25.636;2024-02-14T08:41:38;1.77;;;1.23;;
7477;SDS011;3780;42.424;25.636;2024-02-14T08:44:04;0.90;;;0.50;;
7477;SDS011;3780;42.424;25.636;2024-02-14T08:46:32;0.90;;;0.50;;
7477;SDS011;3780;42.424;25.636;2024-02-14T08:48:59;1.63;;;1.10;;
7477;SDS011;3780;42.424;25.636;2024-02-14T08:51:27;1.98;;;0.80;;
7477;SDS011;3780;42.424;25.636;2024-02-14T08:53:52;1.88;;;0.65;;
7477;SDS011;3780;42.424;25.636;2024-02-14T08:56:20;1.30;;;0.70;;
7477;SDS011;3780;42.424;25.636;2024-02-14T08:58:47;1.30;;;0.70;;
7477;SDS011;3780;42.424;25.636;2024-02-14T09:01:12;1.02;;;0.60;;
7477;SDS011;3780;42.424;25.636;2024-02-14T09:03:37;2.53;;;0.85;;
7477;SDS011;3780;42.424;25.636;2024-02-14T09:06:03;0.60;;;0.40;;
7477;SDS011;3780;42.424;25.636;2024-02-14T09:08:29;1.00;;;0.50;;
7477;SDS011;3780;42.424;25.636;2024-02-14T09:10:56;1.95;;;0.80;;
7477;SDS011;3780;42.424;25.636;2024-02-14T09:13:21;4.57;;;2.80;;
7477;SDS011;3780;42.424;25.636;2024-02-14T09:15:46;2.58;;;1.63;;
7477;SDS011;3780;42.424;25.636;2024-02-14T09:18:13;2.47;;;1.33;;
7477;SDS011;3780;42.424;25.636;2024-02-14T09:20:40;1.35;;;0.30;;
7477;SDS011;3780;42.424;25.636;2024-02-14T09:23:05;0.90;;;0.30;;
7477;SDS011;3780;42.424;25.636;2024-02-14T09:25:31;2.78;;;1.65;;
7477;SDS011;3780;42.424;25.636;2024-02-14T09:27:56;3.92;;;2.35;;
7477;SDS011;3780;42.424;25.636;2024-02-14T09:30:21;1.58;;;1.35;;
7477;SDS011;3780;42.424;25.636;2024-02-14T09:32:47;11.25;;;7.53;;
7477;SDS011;3780;42.424;25.636;2024-02-14T09:35:12;0.95;;;0.60;;
7477;SDS011;3780;42.424;25.636;2024-02-14T09:37:38;3.28;;;0.70;;
7477;SDS011;3780;42.424;25.636;2024-02-14T09:40:04;1.23;;;0.45;;
7477;SDS011;3780;42.424;25.636;2024-02-14T09:42:35;2.55;;;0.40;;
7477;SDS011;3780;42.424;25.636;2024-02-14T09:45:04;1.77;;;0.40;;
7477;SDS011;3780;42.424;25.636;2024-02-14T09:47:30;1.85;;;0.45;;
7477;SDS011;3780;42.424;25.636;2024-02-14T09:49:57;0.38;;;0.30;;
7477;SDS011;3780;42.424;25.636;2024-02-14T09:52:23;0.30;;;0.10;;
7477;SDS011;3780;42.424;25.636;2024-02-14T09:54:49;2.20;;;0.40;;
7477;SDS011;3780;42.424;25.636;2024-02-14T09:57:16;2.53;;;0.40;;
7477;SDS011;3780;42.424;25.636;2024-02-14T09:59:41;2.35;;;0.43;;
7477;SDS011;3780;42.424;25.636;2024-02-14T10:02:07;2.45;;;0.75;;
7477;SDS011;3780;42.424;25.636;2024-02-14T10:04:35;4.20;;;0.90;;
7477;SDS011;3780;42.424;25.636;2024-02-14T10:07:01;2.47;;;1.23;;
7477;SDS011;3780;42.424;25.636;2024-02-14T10:09:26;7.00;;;3.10;;
7477;SDS011;3780;42.424;25.636;2024-02-14T10:11:53;7.30;;;1.95;;
7477;SDS011;3780;42.424;25.636;2024-02-14T10:14:19;8.52;;;2.25;;
7477;SDS011;3780;42.424;25.636;2024-02-14T10:16:44;10.90;;;2.28;;
7477;SDS011;3780;42.424;25.636;2024-02-14T10:19:14;5.07;;;1.40;;
7477;SDS011;3780;42.424;25.636;2024-02-14T10:21:39;9.55;;;1.80;;
7477;SDS011;3780;42.424;25.636;2024-02-14T10:24:05;24.92;;;2.95;;
7477;SDS011;3780;42.424;25.636;2024-02-14T10:26:32;21.35;;;3.05;;
7477;SDS011;3780;42.424;25.636;2024-02-14T10:28:57;9.50;;;1.85;;
7477;SDS011;3780;42.424;25.636;2024-02-14T10:31:26;2.60;;;0.68;;
7477;SDS011;3780;42.424;25.636;2024-02-14T10:33:55;12.57;;;1.52;;
7477;SDS011;3780;42.424;25.636;2024-02-14T10:36:21;36.20;;;3.80;;
7477;SDS011;3780;42.424;25.636;2024-02-14T10:38:46;51.35;;;16.90;;
7477;SDS011;3780;42.424;25.636;2024-02-14T10:41:14;14.30;;;1.90;;
7477;SDS011;3780;42.424;25.636;2024-02-14T10:43:40;6.88;;;0.93;;
7477;SDS011;3780;42.424;25.636;2024-02-14T10:46:08;5.90;;;1.20;;
7477;SDS011;3780;42.424;25.636;2024-02-14T10:48:34;2.97;;;0.60;;
7477;SDS011;3780;42.424;25.636;2024-02-14T10:51:00;2.42;;;0.93;;
7477;SDS011;3780;42.424;25.636;2024-02-14T10:53:26;6.72;;;0.93;;
7477;SDS011;3780;42.424;25.636;2024-02-14T10:55:54;10.20;;;1.52;;
7477;SDS011;3780;42.424;25.636;2024-02-14T10:58:20;5.47;;;0.70;;
7477;SDS011;3780;42.424;25.636;2024-02-14T11:00:48;11.73;;;1.20;;
7477;SDS011;3780;42.424;25.636;2024-02-14T11:03:13;3.05;;;0.40;;
7477;SDS011;3780;42.424;25.636;2024-02-14T11:05:44;17.77;;;2.05;;
7477;SDS011;3780;42.424;25.636;2024-02-14T11:08:12;14.25;;;3.25;;
7477;SDS011;3780;42.424;25.636;2024-02-14T11:10:38;6.45;;;2.42;;
7477;SDS011;3780;42.424;25.636;2024-02-14T11:13:03;7.18;;;1.55;;
7477;SDS011;3780;42.424;25.636;2024-02-14T11:15:29;16.05;;;1.90;;
7477;SDS011;3780;42.424;25.636;2024-02-14T11:18:03;17.80;;;1.83;;
7477;SDS011;3780;42.424;25.636;2024-02-14T11:20:32;25.25;;;3.83;;
7477;SDS011;3780;42.424;25.636;2024-02-14T11:23:07;15.75;;;2.97;;
7477;SDS011;3780;42.424;25.636;2024-02-14T11:25:36;14.77;;;3.25;;
7477;SDS011;3780;42.424;25.636;2024-02-14T11:28:23;12.00;;;1.90;;
7477;SDS011;3780;42.424;25.636;2024-02-14T11:30:49;3.03;;;1.73;;
7477;SDS011;3780;42.424;25.636;2024-02-14T11:35:42;11.85;;;1.38;;
7477;SDS011;3780;42.424;25.636;2024-02-14T11:38:10;4.47;;;2.15;;
7477;SDS011;3780;42.424;25.636;2024-02-14T11:40:36;3.97;;;0.70;;
7477;SDS011;3780;42.424;25.636;2024-02-14T11:43:03;9.57;;;0.70;;
7477;SDS011;3780;42.424;25.636;2024-02-14T11:45:29;2.67;;;0.60;;
7477;SDS011;3780;42.424;25.636;2024-02-14T11:47:54;11.20;;;1.33;;
7477;SDS011;3780;42.424;25.636;2024-02-14T11:50:20;7.13;;;1.30;;
7477;SDS011;3780;42.424;25.636;2024-02-14T11:52:46;10.23;;;1.30;;
7477;SDS011;3780;42.424;25.636;2024-02-14T11:55:11;1.52;;;0.30;;
7477;SDS011;3780;42.424;25.636;2024-02-14T11:57:40;10.93;;;1.40;;
7477;SDS011;3780;42.424;25.636;2024-02-14T12:00:06;2.20;;;0.73;;
7477;SDS011;3780;42.424;25.636;2024-02-14T12:02:31;9.23;;;1.00;;
7477;SDS011;3780;42.424;25.636;2024-02-14T12:04:56;3.03;;;1.20;;
7477;SDS011;3780;42.424;25.636;2024-02-14T12:07:23;7.15;;;1.30;;
7477;SDS011;3780;42.424;25.636;2024-02-14T12:09:49;12.25;;;2.20;;
7477;SDS011;3780;42.424;25.636;2024-02-14T12:12:15;19.40;;;3.13;;
7477;SDS011;3780;42.424;25.636;2024-02-14T12:14:43;14.23;;;1.73;;
7477;SDS011;3780;42.424;25.636;2024-02-14T12:17:09;4.57;;;0.90;;
7477;SDS011;3780;42.424;25.636;2024-02-14T12:19:34;4.28;;;0.95;;
7477;SDS011;3780;42.424;25.636;2024-02-14T12:22:09;9.38;;;1.77;;
7477;SDS011;3780;42.424;25.636;2024-02-14T12:24:36;3.55;;;0.95;;
7477;SDS011;3780;42.424;25.636;2024-02-14T12:27:02;5.15;;;1.30;;
7477;SDS011;3780;42.424;25.636;2024-02-14T12:29:29;3.47;;;0.50;;
7477;SDS011;3780;42.424;25.636;2024-02-14T12:32:04;9.18;;;2.13;;
7477;SDS011;3780;42.424;25.636;2024-02-14T12:34:30;4.22;;;1.70;;
7477;SDS011;3780;42.424;25.636;2024-02-14T12:36:56;6.72;;;1.08;;
7477;SDS011;3780;42.424;25.636;2024-02-14T12:39:22;1.17;;;0.77;;
7477;SDS011;3780;42.424;25.636;2024-02-14T12:41:48;5.38;;;0.90;;
7477;SDS011;3780;42.424;25.636;2024-02-14T12:44:13;2.60;;;1.08;;
7477;SDS011;3780;42.424;25.636;2024-02-14T12:46:39;4.57;;;0.80;;
7477;SDS011;3780;42.424;25.636;2024-02-14T12:49:04;11.13;;;1.98;;
7477;SDS011;3780;42.424;25.636;2024-02-14T12:51:29;7.85;;;0.93;;
7477;SDS011;3780;42.424;25.636;2024-02-14T12:53:55;7.80;;;1.67;;
7477;SDS011;3780;42.424;25.636;2024-02-14T12:56:20;6.30;;;1.00;;
7477;SDS011;3780;42.424;25.636;2024-02-14T12:58:46;6.07;;;0.80;;
7477;SDS011;3780;42.424;25.636;2024-02-14T13:01:12;7.97;;;1.63;;
7477;SDS011;3780;42.424;25.636;2024-02-14T13:03:38;7.43;;;1.55;;
7477;SDS011;3780;42.424;25.636;2024-02-14T13:06:04;8.90;;;1.48;;
7477;SDS011;3780;42.424;25.636;2024-02-14T13:08:29;4.88;;;1.27;;
7477;SDS011;3780;42.424;25.636;2024-02-14T13:10:54;9.43;;;1.58;;
7477;SDS011;3780;42.424;25.636;2024-02-14T13:13:20;6.20;;;1.50;;
7477;SDS011;3780;42.424;25.636;2024-02-14T13:15:45;10.65;;;1.55;;
7477;SDS011;3780;42.424;25.636;2024-02-14T13:18:10;3.15;;;1.55;;
7477;SDS011;3780;42.424;25.636;2024-02-14T13:20:36;6.82;;;3.28;;
7477;SDS011;3780;42.424;25.636;2024-02-14T13:23:02;5.82;;;3.35;;
7477;SDS011;3780;42.424;25.636;2024-02-14T13:25:28;14.50;;;7.30;;
7477;SDS011;3780;42.424;25.636;2024-02-14T13:27:53;8.07;;;3.80;;
7477;SDS011;3780;42.424;25.636;2024-02-14T13:30:20;9.50;;;5.63;;
7477;SDS011;3780;42.424;25.636;2024-02-14T13:32:46;6.78;;;3.75;;
7477;SDS011;3780;42.424;25.636;2024-02-14T13:35:12;14.23;;;4.43;;
7477;SDS011;3780;42.424;25.636;2024-02-14T13:37:38;8.20;;;5.32;;
7477;SDS011;3780;42.424;25.636;2024-02-14T13:40:04;10.73;;;4.65;;
7477;SDS011;3780;42.424;25.636;2024-02-14T13:42:34;10.95;;;5.75;;
7477;SDS011;3780;42.424;25.636;2024-02-14T13:45:00;6.10;;;3.65;;
7477;SDS011;3780;42.424;25.636;2024-02-14T13:47:25;6.88;;;2.47;;
7477;SDS011;3780;42.424;25.636;2024-02-14T13:49:50;12.93;;;3.60;;
7477;SDS011;3780;42.424;25.636;2024-02-14T13:52:16;7.40;;;1.40;;
7477;SDS011;3780;42.424;25.636;2024-02-14T13:54:42;10.98;;;4.03;;
7477;SDS011;3780;42.424;25.636;2024-02-14T13:57:08;5.38;;;1.90;;
7477;SDS011;3780;42.424;25.636;2024-02-14T13:59:33;6.55;;;2.28;;
7477;SDS011;3780;42.424;25.636;2024-02-14T14:01:58;7.38;;;2.90;;
7477;SDS011;3780;42.424;25.636;2024-02-14T14:04:24;8.98;;;2.67;;
7477;SDS011;3780;42.424;25.636;2024-02-14T14:06:50;10.30;;;2.30;;
7477;SDS011;3780;42.424;25.636;2024-02-14T14:09:16;5.40;;;2.35;;
7477;SDS011;3780;42.424;25.636;2024-02-14T14:11:41;23.92;;;4.35;;
7477;SDS011;3780;42.424;25.636;2024-02-14T14:14:06;12.82;;;1.83;;
7477;SDS011;3780;42.424;25.636;2024-02-14T14:16:33;7.15;;;1.80;;
7477;SDS011;3780;42.424;25.636;2024-02-14T14:18:58;2.70;;;1.15;;
7477;SDS011;3780;42.424;25.636;2024-02-14T14:21:24;3.42;;;1.20;;
7477;SDS011;3780;42.424;25.636;2024-02-14T14:23:49;4.85;;;1.75;;
7477;SDS011;3780;42.424;25.636;2024-02-14T14:26:14;5.70;;;1.70;;
7477;SDS011;3780;42.424;25.636;2024-02-14T14:28:40;4.32;;;1.70;;
7477;SDS011;3780;42.424;25.636;2024-02-14T14:31:07;7.80;;;2.33;;
7477;SDS011;3780;42.424;25.636;2024-02-14T14:33:34;15.32;;;6.15;;
7477;SDS011;3780;42.424;25.636;2024-02-14T14:35:59;5.10;;;2.55;;
7477;SDS011;3780;42.424;25.636;2024-02-14T14:38:25;21.77;;;9.45;;
7477;SDS011;3780;42.424;25.636;2024-02-14T14:40:51;4.88;;;1.95;;
7477;SDS011;3780;42.424;25.636;2024-02-14T14:43:20;11.20;;;1.70;;
7477;SDS011;3780;42.424;25.636;2024-02-14T14:45:46;3.97;;;0.95;;
7477;SDS011;3780;42.424;25.636;2024-02-14T14:48:11;10.40;;;1.60;;
7477;SDS011;3780;42.424;25.636;2024-02-14T14:50:37;12.15;;;2.88;;
7477;SDS011;3780;42.424;25.636;2024-02-14T14:53:02;25.30;;;5.20;;
7477;SDS011;3780;42.424;25.636;2024-02-14T14:58:13;16.15;;;4.35;;